Terminal Aerodrome Forecast
Issued by NWS

Home | Current Version | Previous Version | Text Only | Print | Product List | Glossary Off
Versions: 1 2 3 4 5 6 7 8 9 10 11 12 13 14 15 16 17 18 19 20 21 22 23 24 25 26 27 28 29 30

551
FTUS43 KABR 140702 AAA
TAFPIR
TAF AMD
KPIR 140702Z 1407/1506 18004KT P6SM OVC014
      TEMPO 1408/1411 FEW030
     FM141100 VRB03KT P6SM BKN025
     FM141800 30013G21KT P6SM OVC035
     FM142000 33018G25KT 1 1/2SM BLSN OVC015
     FM150000 35017G24KT P6SM BKN035
     FM150200 35016G24KT P6SM SCT060=

USA.gov is the U.S. government's official web portal to all federal, state and local government web resources and services.